createdAt,value
2018-08-06T00:00:13.028Z,989.04
2018-08-06T00:01:12.984Z,989.09
2018-08-06T00:02:12.957Z,989.05
2018-08-06T00:03:12.919Z,989.04
2018-08-06T00:04:12.878Z,989.04
2018-08-06T00:05:12.844Z,989.06
2018-08-06T00:06:12.840Z,989.03
2018-08-06T00:07:12.790Z,989.04
2018-08-06T00:08:12.733Z,989.00
2018-08-06T00:09:12.692Z,989.07
2018-08-06T00:10:12.678Z,989.01
2018-08-06T00:11:12.640Z,989.03
2018-08-06T00:12:12.597Z,989.01
2018-08-06T00:13:12.589Z,989.03
2018-08-06T00:14:12.516Z,988.99
2018-08-06T00:15:12.493Z,989.01
2018-08-06T00:16:12.447Z,989.00
2018-08-06T00:17:12.419Z,989.01
2018-08-06T00:18:12.393Z,989.01
2018-08-06T00:19:12.336Z,989.01
2018-08-06T00:20:12.302Z,989.00
2018-08-06T00:21:12.273Z,989.00
2018-08-06T00:22:12.226Z,989.02
2018-08-06T00:23:12.186Z,989.00
2018-08-06T00:24:12.176Z,989.00
2018-08-06T00:25:12.143Z,989.03
2018-08-06T00:26:12.081Z,989.02
2018-08-06T00:27:12.055Z,989.00
2018-08-06T00:28:12.030Z,989.00
2018-08-06T00:29:11.990Z,989.02
2018-08-06T00:30:11.965Z,988.98
2018-08-06T00:31:11.899Z,989.01
2018-08-06T00:32:11.877Z,988.94
2018-08-06T00:33:11.828Z,988.97
2018-08-06T00:34:11.792Z,988.95
2018-08-06T00:35:11.779Z,988.95
2018-08-06T00:36:11.714Z,988.95
2018-08-06T00:37:11.699Z,988.96
2018-08-06T00:38:11.658Z,988.93
2018-08-06T00:39:11.630Z,988.94
2018-08-06T00:40:11.570Z,988.94
2018-08-06T00:41:11.552Z,988.92
2018-08-06T00:42:11.497Z,988.92
2018-08-06T00:43:11.458Z,988.92
2018-08-06T00:44:11.435Z,988.90
2018-08-06T00:45:11.403Z,988.89
2018-08-06T00:46:11.366Z,988.89
2018-08-06T00:47:11.342Z,988.87
2018-08-06T00:48:11.277Z,988.86
2018-08-06T00:49:11.246Z,988.82
2018-08-06T00:50:11.231Z,988.85
2018-08-06T00:51:11.210Z,988.83
2018-08-06T00:52:11.145Z,988.84
2018-08-06T00:53:11.097Z,988.78
2018-08-06T00:54:11.080Z,988.78
2018-08-06T00:55:11.030Z,988.81
2018-08-06T00:56:10.991Z,988.78
2018-08-06T00:57:10.968Z,988.77
2018-08-06T00:58:10.921Z,988.77
2018-08-06T00:59:10.873Z,988.75
2018-08-06T01:00:10.837Z,988.69
2018-08-06T01:01:10.820Z,988.69
2018-08-06T01:02:10.768Z,988.73
2018-08-06T01:03:10.746Z,988.70
2018-08-06T01:04:10.698Z,988.67
2018-08-06T01:05:10.671Z,988.66
2018-08-06T01:06:10.626Z,988.65
2018-08-06T01:07:10.584Z,988.63
2018-08-06T01:08:10.552Z,988.68
2018-08-06T01:09:10.515Z,988.64
2018-08-06T01:10:10.495Z,988.63
2018-08-06T01:11:10.447Z,988.58
2018-08-06T01:12:10.398Z,988.59
2018-08-06T01:13:10.357Z,988.56
2018-08-06T01:14:10.353Z,988.55
2018-08-06T01:15:10.295Z,988.58
2018-08-06T01:16:10.264Z,988.58
2018-08-06T01:17:10.221Z,988.61
2018-08-06T01:18:10.180Z,988.60
2018-08-06T01:19:10.149Z,988.61
2018-08-06T01:20:10.118Z,988.59
2018-08-06T01:21:10.086Z,988.59
2018-08-06T01:22:10.040Z,988.60
2018-08-06T01:23:09.992Z,988.60
2018-08-06T01:24:09.982Z,988.61
2018-08-06T01:25:09.932Z,988.60
2018-08-06T01:26:09.883Z,988.62
2018-08-06T01:27:09.869Z,988.62
2018-08-06T01:28:09.816Z,988.60
2018-08-06T01:29:09.781Z,988.59
2018-08-06T01:30:09.737Z,988.59
2018-08-06T01:31:09.731Z,988.57
2018-08-06T01:32:09.668Z,988.58
2018-08-06T01:33:09.633Z,988.54
2018-08-06T01:34:09.598Z,988.53
2018-08-06T01:35:09.576Z,988.51
2018-08-06T01:36:09.535Z,988.54
2018-08-06T01:37:09.496Z,988.51
2018-08-06T01:38:09.466Z,988.52
2018-08-06T01:39:09.412Z,988.48
2018-08-06T01:40:09.391Z,988.51
2018-08-06T01:41:09.341Z,988.47
2018-08-06T01:42:09.293Z,988.47
2018-08-06T01:43:09.253Z,988.40
2018-08-06T01:44:09.221Z,988.43
2018-08-06T01:45:09.193Z,988.41
2018-08-06T01:46:09.144Z,988.37
2018-08-06T01:47:09.104Z,988.38
2018-08-06T01:48:09.090Z,988.41
2018-08-06T01:49:09.063Z,988.42
2018-08-06T01:50:08.998Z,988.43
2018-08-06T01:51:08.959Z,988.43
2018-08-06T01:52:08.926Z,988.42
2018-08-06T01:53:08.883Z,988.43
2018-08-06T01:54:08.896Z,988.44
2018-08-06T01:55:08.821Z,988.44
2018-08-06T01:56:08.798Z,988.46
2018-08-06T01:57:08.771Z,988.45
2018-08-06T01:58:08.720Z,988.42
2018-08-06T01:59:08.664Z,988.43
2018-08-06T02:00:08.642Z,988.43
2018-08-06T02:01:08.600Z,988.43
2018-08-06T02:02:08.558Z,988.43
2018-08-06T02:03:08.521Z,988.38
2018-08-06T02:04:08.499Z,988.42
2018-08-06T02:05:08.441Z,988.41
2018-08-06T02:06:08.440Z,988.46
2018-08-06T02:07:08.377Z,988.40
2018-08-06T02:08:08.368Z,988.39
2018-08-06T02:09:08.302Z,988.43
2018-08-06T02:10:08.281Z,988.38
2018-08-06T02:11:08.220Z,988.39
2018-08-06T02:12:08.185Z,988.37
2018-08-06T02:13:08.153Z,988.36
2018-08-06T02:14:08.121Z,988.39
2018-08-06T02:15:08.086Z,988.40
2018-08-06T02:16:08.042Z,988.43
2018-08-06T02:17:08.008Z,988.40
2018-08-06T02:18:07.964Z,988.41
2018-08-06T02:19:07.928Z,988.42
2018-08-06T02:20:07.882Z,988.37
2018-08-06T02:21:07.857Z,988.37
2018-08-06T02:22:07.814Z,988.39
2018-08-06T02:23:07.781Z,988.47
2018-08-06T02:24:07.739Z,988.41
2018-08-06T02:25:07.726Z,988.42
2018-08-06T02:26:07.668Z,988.41
2018-08-06T02:27:07.635Z,988.46
2018-08-06T02:28:07.593Z,988.41
2018-08-06T02:29:07.552Z,988.39
2018-08-06T02:30:07.520Z,988.41
2018-08-06T02:31:07.508Z,988.38
2018-08-06T02:32:07.454Z,988.44
2018-08-06T02:33:07.411Z,988.40
2018-08-06T02:34:07.369Z,988.42
2018-08-06T02:35:07.346Z,988.39
2018-08-06T02:36:07.298Z,988.39
2018-08-06T02:37:07.262Z,988.39
2018-08-06T02:38:07.222Z,988.39
2018-08-06T02:39:07.189Z,988.37
2018-08-06T02:40:07.141Z,988.35
2018-08-06T02:41:07.100Z,988.35
2018-08-06T02:42:07.064Z,988.35
2018-08-06T02:43:07.027Z,988.36
2018-08-06T02:44:06.992Z,988.36
2018-08-06T02:45:06.994Z,988.39
2018-08-06T02:46:06.920Z,988.43
2018-08-06T02:47:06.896Z,988.40
2018-08-06T02:48:06.852Z,988.41
2018-08-06T02:49:06.806Z,988.43
2018-08-06T02:50:06.775Z,988.43
2018-08-06T02:51:06.743Z,988.40
2018-08-06T02:52:06.698Z,988.39
2018-08-06T02:53:06.655Z,988.39
2018-08-06T02:54:06.617Z,988.38
2018-08-06T02:55:06.574Z,988.37
2018-08-06T02:56:06.541Z,988.32
2018-08-06T02:57:06.504Z,988.32
2018-08-06T02:58:06.472Z,988.33
2018-08-06T02:59:06.458Z,988.36
2018-08-06T03:00:06.396Z,988.26
2018-08-06T03:01:06.376Z,988.27
2018-08-06T03:02:06.330Z,988.27
2018-08-06T03:03:06.286Z,988.21
2018-08-06T03:04:06.248Z,988.23
2018-08-06T03:05:06.204Z,988.22
2018-08-06T03:06:06.183Z,988.24
2018-08-06T03:07:06.143Z,988.21
2018-08-06T03:08:06.099Z,988.22
2018-08-06T03:09:06.066Z,988.21
2018-08-06T03:10:06.051Z,988.21
2018-08-06T03:11:05.990Z,988.22
2018-08-06T03:12:05.950Z,988.21
2018-08-06T03:13:05.913Z,988.24
2018-08-06T03:14:05.870Z,988.24
2018-08-06T03:15:05.833Z,988.22
2018-08-06T03:16:05.796Z,988.21
2018-08-06T03:17:05.824Z,988.24
2018-08-06T03:18:05.721Z,988.21
2018-08-06T03:19:05.688Z,988.21
2018-08-06T03:20:05.653Z,988.20
2018-08-06T03:21:05.622Z,988.23
2018-08-06T03:22:05.594Z,988.22
2018-08-06T03:23:05.551Z,988.20
2018-08-06T03:24:05.509Z,988.20
2018-08-06T03:25:05.460Z,988.20
2018-08-06T03:26:05.412Z,988.24
2018-08-06T03:27:05.399Z,988.22
2018-08-06T03:28:05.376Z,988.26
2018-08-06T03:29:05.316Z,988.24
2018-08-06T03:30:05.285Z,988.26
2018-08-06T03:31:05.254Z,988.22
2018-08-06T03:32:05.204Z,988.27
2018-08-06T03:33:05.166Z,988.28
2018-08-06T03:34:05.152Z,988.22
2018-08-06T03:35:05.103Z,988.24
2018-08-06T03:36:05.073Z,988.23
2018-08-06T03:37:05.070Z,988.24
2018-08-06T03:38:05.023Z,988.26
2018-08-06T03:39:04.941Z,988.28
2018-08-06T03:40:04.914Z,988.30
2018-08-06T03:41:04.864Z,988.27
2018-08-06T03:42:04.825Z,988.25
2018-08-06T03:43:04.788Z,988.27
2018-08-06T03:44:04.750Z,988.30
2018-08-06T03:45:04.705Z,988.29
2018-08-06T03:46:04.669Z,988.33
2018-08-06T03:47:04.645Z,988.27
2018-08-06T03:48:04.590Z,988.27
2018-08-06T03:49:04.576Z,988.26
2018-08-06T03:50:04.535Z,988.27
2018-08-06T03:51:04.474Z,988.28
2018-08-06T03:52:04.433Z,988.28
2018-08-06T03:53:04.405Z,988.26
2018-08-06T03:54:04.374Z,988.29
2018-08-06T03:55:04.338Z,988.32
2018-08-06T03:56:04.287Z,988.34
2018-08-06T03:57:04.255Z,988.33
2018-08-06T03:58:04.210Z,988.34
2018-08-06T03:59:04.200Z,988.32
2018-08-06T04:00:04.144Z,988.34
2018-08-06T04:01:04.106Z,988.31
2018-08-06T04:02:04.105Z,988.31
2018-08-06T04:03:04.084Z,988.34
2018-08-06T04:04:04.022Z,988.34
2018-08-06T04:05:03.964Z,988.32
2018-08-06T04:06:03.915Z,988.35
2018-08-06T04:07:03.901Z,988.30
2018-08-06T04:08:03.873Z,988.31
2018-08-06T04:09:03.806Z,988.29
2018-08-06T04:10:03.762Z,988.29
2018-08-06T04:11:03.734Z,988.23
2018-08-06T04:12:03.706Z,988.21
2018-08-06T04:13:03.690Z,988.21
2018-08-06T04:14:03.629Z,988.26
2018-08-06T04:15:03.574Z,988.31
2018-08-06T04:16:03.556Z,988.30
2018-08-06T04:17:03.515Z,988.28
2018-08-06T04:18:03.521Z,988.25
2018-08-06T04:19:03.419Z,988.23
2018-08-06T04:20:03.381Z,988.26
2018-08-06T04:21:03.341Z,988.23
2018-08-06T04:22:03.318Z,988.22
2018-08-06T04:23:03.303Z,988.21
2018-08-06T04:24:03.246Z,988.18
2018-08-06T04:25:03.218Z,988.20
2018-08-06T04:26:03.165Z,988.19
2018-08-06T04:27:03.137Z,988.22
2018-08-06T04:28:03.080Z,988.18
2018-08-06T04:29:03.038Z,988.21
2018-08-06T04:30:03.021Z,988.22
2018-08-06T04:31:02.971Z,988.21
2018-08-06T04:32:02.950Z,988.28
2018-08-06T04:33:02.918Z,988.25
2018-08-06T04:34:02.859Z,988.24
2018-08-06T04:35:03.678Z,988.28
2018-08-06T04:36:02.786Z,988.26
2018-08-06T04:37:02.770Z,988.30
2018-08-06T04:38:02.708Z,988.30
2018-08-06T04:39:02.672Z,988.32
2018-08-06T04:40:02.635Z,988.32
2018-08-06T04:41:02.590Z,988.33
2018-08-06T04:42:02.576Z,988.39
2018-08-06T04:43:02.529Z,988.34
2018-08-06T04:44:02.550Z,988.32
2018-08-06T04:45:02.456Z,988.36
2018-08-06T04:46:02.467Z,988.36
2018-08-06T04:47:02.377Z,988.34
2018-08-06T04:48:02.329Z,988.38
2018-08-06T04:49:02.291Z,988.38
2018-08-06T04:50:02.269Z,988.34
2018-08-06T04:51:02.252Z,988.37
2018-08-06T04:52:02.187Z,988.33
2018-08-06T04:53:02.159Z,988.33
2018-08-06T04:54:02.113Z,988.35
2018-08-06T04:55:02.075Z,988.36
2018-08-06T04:56:02.033Z,988.35
2018-08-06T04:57:02.006Z,988.36
2018-08-06T04:58:02.017Z,988.35
2018-08-06T04:59:02.018Z,988.36
2018-08-06T05:00:01.888Z,988.32
2018-08-06T05:01:01.840Z,988.37
2018-08-06T05:02:01.811Z,988.36
2018-08-06T05:03:01.786Z,988.34
2018-08-06T05:04:01.766Z,988.36
2018-08-06T05:05:01.693Z,988.34
2018-08-06T05:06:01.663Z,988.33
2018-08-06T05:07:01.708Z,988.33
2018-08-06T05:08:01.585Z,988.32
2018-08-06T05:09:01.552Z,988.33
2018-08-06T05:10:01.510Z,988.33
2018-08-06T05:11:01.475Z,988.34
2018-08-06T05:12:01.462Z,988.35
2018-08-06T05:13:01.405Z,988.37
2018-08-06T05:14:01.387Z,988.39
2018-08-06T05:15:01.326Z,988.34
2018-08-06T05:16:01.284Z,988.33
2018-08-06T05:17:01.261Z,988.35
2018-08-06T05:18:01.221Z,988.34
2018-08-06T05:19:01.179Z,988.36
2018-08-06T05:20:01.156Z,988.35
2018-08-06T05:21:01.103Z,988.34
2018-08-06T05:22:01.078Z,988.37
2018-08-06T05:23:01.032Z,988.35
2018-08-06T05:24:01.018Z,988.36
2018-08-06T05:25:00.958Z,988.39
2018-08-06T05:26:00.917Z,988.42
2018-08-06T05:27:00.892Z,988.49
2018-08-06T05:28:00.851Z,988.47
2018-08-06T05:29:00.809Z,988.48
2018-08-06T05:30:00.769Z,988.48
2018-08-06T05:31:00.755Z,988.45
2018-08-06T05:32:00.763Z,988.46
2018-08-06T05:33:00.676Z,988.43
2018-08-06T05:34:00.641Z,988.45
2018-08-06T05:35:00.651Z,988.42
2018-08-06T05:36:00.612Z,988.46
2018-08-06T05:37:00.632Z,988.46
2018-08-06T05:38:00.545Z,988.47
2018-08-06T05:39:00.465Z,988.54
2018-08-06T05:40:00.436Z,988.55
2018-08-06T05:41:00.391Z,988.56
2018-08-06T05:42:00.430Z,988.60
2018-08-06T05:43:00.421Z,988.59
2018-08-06T05:44:00.286Z,988.58
2018-08-06T05:45:00.247Z,988.59
2018-08-06T05:46:00.217Z,988.59
2018-08-06T05:47:00.170Z,988.56
2018-08-06T05:48:00.157Z,988.60
2018-08-06T05:49:00.109Z,988.56
2018-08-06T05:50:00.084Z,988.55
2018-08-06T05:51:00.033Z,988.56
2018-08-06T05:52:00.020Z,988.56
2018-08-06T05:52:59.984Z,988.54
2018-08-06T05:53:59.949Z,988.55
2018-08-06T05:54:59.910Z,988.55
2018-08-06T05:55:59.882Z,988.59
2018-08-06T05:56:59.825Z,988.59
2018-08-06T05:57:59.820Z,988.62
2018-08-06T05:58:59.775Z,988.63
2018-08-06T05:59:59.736Z,988.64
2018-08-06T06:00:59.711Z,988.65
2018-08-06T06:01:59.652Z,988.62
2018-08-06T06:02:59.616Z,988.61
2018-08-06T06:03:59.570Z,988.65
2018-08-06T06:04:59.591Z,988.65
2018-08-06T06:05:59.526Z,988.65
2018-08-06T06:06:59.489Z,988.68
2018-08-06T06:07:59.470Z,988.64
2018-08-06T06:08:59.413Z,988.73
2018-08-06T06:09:59.389Z,988.67
2018-08-06T06:10:59.353Z,988.68
2018-08-06T06:11:59.310Z,988.69
2018-08-06T06:12:59.298Z,988.72
2018-08-06T06:13:59.230Z,988.69
2018-08-06T06:14:59.254Z,988.68
2018-08-06T06:15:59.172Z,988.67
2018-08-06T06:16:59.148Z,988.68
2018-08-06T06:17:59.106Z,988.68
2018-08-06T06:18:59.137Z,988.63
2018-08-06T06:19:59.045Z,988.63
2018-08-06T06:20:59.019Z,988.63
2018-08-06T06:21:58.975Z,988.67
2018-08-06T06:22:58.942Z,988.69
2018-08-06T06:23:58.888Z,988.71
2018-08-06T06:24:58.880Z,988.71
2018-08-06T06:25:58.849Z,988.73
2018-08-06T06:26:59.020Z,988.70
2018-08-06T06:27:58.768Z,988.71
2018-08-06T06:28:58.738Z,988.72
2018-08-06T06:29:58.860Z,988.69
2018-08-06T06:30:58.680Z,988.69
2018-08-06T06:31:58.621Z,988.70
2018-08-06T06:32:58.613Z,988.69
2018-08-06T06:33:58.555Z,988.68
2018-08-06T06:34:58.541Z,988.68
2018-08-06T06:35:58.496Z,988.73
2018-08-06T06:36:58.450Z,988.69
2018-08-06T06:37:58.423Z,988.66
2018-08-06T06:38:58.381Z,988.65
2018-08-06T06:39:58.355Z,988.61
2018-08-06T06:40:58.326Z,988.62
2018-08-06T06:41:58.296Z,988.60
2018-08-06T06:42:58.261Z,988.61
2018-08-06T06:43:58.209Z,988.61
2018-08-06T06:44:58.185Z,988.60
2018-08-06T06:45:58.153Z,988.58
2018-08-06T06:46:58.107Z,988.60
2018-08-06T06:47:58.082Z,988.57
2018-08-06T06:48:58.148Z,988.63
2018-08-06T06:49:58.013Z,988.60
2018-08-06T06:50:57.980Z,988.59
2018-08-06T06:51:57.946Z,988.58
2018-08-06T06:52:57.914Z,988.61
2018-08-06T06:53:57.879Z,988.63
2018-08-06T06:54:57.846Z,988.68
2018-08-06T06:55:57.819Z,988.60
2018-08-06T06:56:57.882Z,988.62
2018-08-06T06:57:57.755Z,988.59
2018-08-06T06:58:57.710Z,988.59
2018-08-06T06:59:57.726Z,988.61
2018-08-06T07:00:57.662Z,988.58
2018-08-06T07:01:57.628Z,988.57
2018-08-06T07:02:57.604Z,988.57
2018-08-06T07:03:57.557Z,988.59
2018-08-06T07:04:57.546Z,988.61
2018-08-06T07:05:57.512Z,988.65
2018-08-06T07:06:57.496Z,988.66
2018-08-06T07:07:57.436Z,988.64
2018-08-06T07:08:57.449Z,988.62
2018-08-06T07:09:57.384Z,988.61
2018-08-06T07:10:57.368Z,988.63
2018-08-06T07:11:57.330Z,988.60
2018-08-06T07:12:57.320Z,988.66
2018-08-06T07:13:57.292Z,988.64
2018-08-06T07:14:58.353Z,988.62
2018-08-06T07:15:57.216Z,988.58
2018-08-06T07:16:57.205Z,988.60
2018-08-06T07:17:57.220Z,988.60
2018-08-06T07:18:57.154Z,988.56
2018-08-06T07:19:57.125Z,988.60
2018-08-06T07:20:57.129Z,988.59
2018-08-06T07:21:57.090Z,988.56
2018-08-06T07:22:57.037Z,988.60
2018-08-06T07:23:57.026Z,988.61
2018-08-06T07:24:57.000Z,988.58
2018-08-06T07:25:56.989Z,988.60
2018-08-06T07:26:56.974Z,988.59
2018-08-06T07:27:56.936Z,988.54
2018-08-06T07:28:56.909Z,988.56
2018-08-06T07:29:56.884Z,988.58
2018-08-06T07:30:56.866Z,988.58
2018-08-06T07:31:56.917Z,988.57
2018-08-06T07:32:56.830Z,988.54
2018-08-06T07:33:56.820Z,988.56
2018-08-06T07:34:56.777Z,988.55
2018-08-06T07:35:56.768Z,988.58
2018-08-06T07:36:56.735Z,988.57
2018-08-06T07:37:56.715Z,988.58
2018-08-06T07:38:56.708Z,988.55
2018-08-06T07:39:56.710Z,988.57
2018-08-06T07:40:56.686Z,988.59
2018-08-06T07:41:56.644Z,988.62
2018-08-06T07:42:56.621Z,988.57
2018-08-06T07:43:56.649Z,988.58
2018-08-06T07:44:56.577Z,988.55
2018-08-06T07:45:56.573Z,988.58
2018-08-06T07:46:56.615Z,988.58
2018-08-06T07:47:56.581Z,988.58
2018-08-06T07:48:56.504Z,988.55
2018-08-06T07:49:56.623Z,988.52
2018-08-06T07:50:56.493Z,988.51
2018-08-06T07:51:56.462Z,988.53
2018-08-06T07:52:56.445Z,988.54
2018-08-06T07:53:56.417Z,988.52
2018-08-06T07:54:56.424Z,988.55
2018-08-06T07:55:56.384Z,988.57
2018-08-06T07:56:56.361Z,988.55
2018-08-06T07:57:56.342Z,988.54
2018-08-06T07:58:56.327Z,988.55
2018-08-06T07:59:56.317Z,988.54
2018-08-06T08:00:56.302Z,988.47
2018-08-06T08:01:56.276Z,988.46
2018-08-06T08:02:56.249Z,988.47
2018-08-06T08:03:56.257Z,988.44
2018-08-06T08:04:56.211Z,988.44
2018-08-06T08:05:56.210Z,988.45
2018-08-06T08:06:56.175Z,988.46
2018-08-06T08:07:56.165Z,988.39
2018-08-06T08:08:56.151Z,988.46
2018-08-06T08:09:56.126Z,988.40
2018-08-06T08:10:56.109Z,988.42
2018-08-06T08:11:56.167Z,988.40
2018-08-06T08:12:56.100Z,988.41
2018-08-06T08:13:56.061Z,988.42
2018-08-06T08:14:56.078Z,988.44
2018-08-06T08:15:56.040Z,988.44
2018-08-06T08:16:56.044Z,988.46
2018-08-06T08:17:56.046Z,988.40
2018-08-06T08:18:55.981Z,988.42
2018-08-06T08:19:56.000Z,988.41
2018-08-06T08:20:55.959Z,988.38
2018-08-06T08:21:55.945Z,988.33
2018-08-06T08:22:55.919Z,988.37
2018-08-06T08:23:55.901Z,988.34
2018-08-06T08:24:55.920Z,988.31
2018-08-06T08:25:55.889Z,988.31
2018-08-06T08:26:55.873Z,988.31
2018-08-06T08:27:55.860Z,988.27
2018-08-06T08:28:55.826Z,988.28
2018-08-06T08:29:55.810Z,988.24
2018-08-06T08:30:55.813Z,988.24
2018-08-06T08:31:55.781Z,988.28
2018-08-06T08:32:55.756Z,988.26
2018-08-06T08:33:55.757Z,988.21
2018-08-06T08:34:55.710Z,988.18
2018-08-06T08:35:55.714Z,988.24
2018-08-06T08:36:55.694Z,988.22
2018-08-06T08:37:55.702Z,988.24
2018-08-06T08:38:55.647Z,988.23
2018-08-06T08:39:55.655Z,988.19
2018-08-06T08:40:55.623Z,988.22
2018-08-06T08:41:55.616Z,988.18
2018-08-06T08:42:55.598Z,988.21
2018-08-06T08:43:55.577Z,988.20
2018-08-06T08:44:55.543Z,988.20
2018-08-06T08:45:55.535Z,988.18
2018-08-06T08:46:55.535Z,988.17
2018-08-06T08:47:55.510Z,988.14
2018-08-06T08:48:55.492Z,988.15
2018-08-06T08:49:55.492Z,988.09
2018-08-06T08:50:55.456Z,988.11
2018-08-06T08:51:55.492Z,988.09
2018-08-06T08:52:55.421Z,988.14
2018-08-06T08:53:55.410Z,988.12
2018-08-06T08:54:55.406Z,988.14
2018-08-06T08:55:55.410Z,988.13
2018-08-06T08:56:55.375Z,988.13
2018-08-06T08:57:55.324Z,988.08
2018-08-06T08:58:55.377Z,988.14
2018-08-06T08:59:55.389Z,988.14
2018-08-06T09:00:55.319Z,988.16
2018-08-06T09:01:55.289Z,988.06
2018-08-06T09:02:55.261Z,988.10
2018-08-06T09:03:55.262Z,988.10
2018-08-06T09:04:55.244Z,988.07
2018-08-06T09:05:55.194Z,988.07
2018-08-06T09:06:55.208Z,988.13
2018-08-06T09:07:55.178Z,988.06
2018-08-06T09:08:55.157Z,988.12
2018-08-06T09:09:55.143Z,988.09
2018-08-06T09:10:55.138Z,988.08
2018-08-06T09:11:55.131Z,988.04
2018-08-06T09:12:55.103Z,988.03
2018-08-06T09:13:55.132Z,988.05
2018-08-06T09:14:55.112Z,988.02
2018-08-06T09:15:55.039Z,988.03
2018-08-06T09:16:55.038Z,988.00
2018-08-06T09:17:55.003Z,988.00
2018-08-06T09:18:55.005Z,988.02
2018-08-06T09:19:54.971Z,987.97
2018-08-06T09:20:54.964Z,987.95
2018-08-06T09:21:54.960Z,987.97
2018-08-06T09:22:54.944Z,987.92
2018-08-06T09:23:54.911Z,987.95
2018-08-06T09:24:54.892Z,987.96
2018-08-06T09:25:54.886Z,987.89
2018-08-06T09:26:54.907Z,987.96
2018-08-06T09:27:54.867Z,987.88
2018-08-06T09:28:54.852Z,987.89
2018-08-06T09:29:54.801Z,987.86
2018-08-06T09:30:54.803Z,987.85
2018-08-06T09:31:54.799Z,987.85
2018-08-06T09:32:54.770Z,987.87
2018-08-06T09:33:54.767Z,987.85
2018-08-06T09:34:54.733Z,987.86
2018-08-06T09:35:54.730Z,987.87
2018-08-06T09:36:54.687Z,987.83
2018-08-06T09:37:54.678Z,987.85
2018-08-06T09:38:54.668Z,987.88
2018-08-06T09:39:54.645Z,987.82
2018-08-06T09:40:54.628Z,987.81
2018-08-06T09:41:54.659Z,987.85
2018-08-06T09:42:54.661Z,987.85
2018-08-06T09:43:54.592Z,987.84
2018-08-06T09:44:54.587Z,987.83
2018-08-06T09:45:54.532Z,987.77
2018-08-06T09:46:54.537Z,987.81
2018-08-06T09:47:54.520Z,987.78
2018-08-06T09:48:54.495Z,987.76
2018-08-06T09:49:54.473Z,987.74
2018-08-06T09:50:54.449Z,987.71
2018-08-06T09:51:54.455Z,987.72
2018-08-06T09:52:54.539Z,987.69
2018-08-06T09:53:54.451Z,987.69
2018-08-06T09:54:54.388Z,987.63
2018-08-06T09:55:54.366Z,987.65
2018-08-06T09:56:54.363Z,987.65
2018-08-06T09:57:54.397Z,987.62
2018-08-06T09:58:54.326Z,987.65
2018-08-06T09:59:54.294Z,987.59
2018-08-06T10:00:54.310Z,987.59
2018-08-06T10:01:54.271Z,987.58
2018-08-06T10:02:54.244Z,987.58
2018-08-06T10:03:54.214Z,987.49
2018-08-06T10:04:54.214Z,987.52
2018-08-06T10:05:54.339Z,987.46
2018-08-06T10:06:54.172Z,987.43
2018-08-06T10:07:54.143Z,987.45
2018-08-06T10:08:54.131Z,987.42
2018-08-06T10:09:54.100Z,987.41
2018-08-06T10:10:54.093Z,987.40
2018-08-06T10:11:54.151Z,987.38
2018-08-06T10:12:54.053Z,987.42
2018-08-06T10:13:54.074Z,987.41
2018-08-06T10:14:54.021Z,987.40
2018-08-06T10:15:54.004Z,987.39
2018-08-06T10:16:55.048Z,987.35
2018-08-06T10:17:53.963Z,987.34
2018-08-06T10:18:54.030Z,987.30
2018-08-06T10:19:53.928Z,987.29
2018-08-06T10:20:53.924Z,987.31
2018-08-06T10:21:53.904Z,987.29
2018-08-06T10:22:53.906Z,987.22
2018-08-06T10:23:53.860Z,987.22
2018-08-06T10:24:53.840Z,987.21
2018-08-06T10:25:53.826Z,987.18
2018-08-06T10:26:53.864Z,987.16
2018-08-06T10:27:53.789Z,987.14
2018-08-06T10:28:53.762Z,987.13
2018-08-06T10:29:53.767Z,987.13
2018-08-06T10:30:53.724Z,987.17
2018-08-06T10:31:53.706Z,987.10
2018-08-06T10:32:53.694Z,987.14
2018-08-06T10:33:53.691Z,987.08
2018-08-06T10:34:53.677Z,987.12
2018-08-06T10:35:53.643Z,987.09
2018-08-06T10:36:53.614Z,987.04
2018-08-06T10:37:53.609Z,987.07
2018-08-06T10:38:53.586Z,987.09
2018-08-06T10:39:53.580Z,987.12
2018-08-06T10:40:53.548Z,987.07
2018-08-06T10:41:53.553Z,987.07
2018-08-06T10:42:53.522Z,987.07
2018-08-06T10:43:53.551Z,987.07
2018-08-06T10:44:53.482Z,987.06
2018-08-06T10:45:53.457Z,986.99
2018-08-06T10:46:53.457Z,986.97
2018-08-06T10:47:53.423Z,986.97
2018-08-06T10:48:53.414Z,986.99
2018-08-06T10:49:53.387Z,986.94
2018-08-06T10:50:53.397Z,986.95
2018-08-06T10:51:53.343Z,986.94
2018-08-06T10:52:53.333Z,986.94
2018-08-06T10:53:53.378Z,986.92
2018-08-06T10:54:53.308Z,986.90
2018-08-06T10:55:53.292Z,986.92
2018-08-06T10:56:53.287Z,986.86
2018-08-06T10:57:53.245Z,986.83
2018-08-06T10:58:53.238Z,986.84
2018-08-06T10:59:53.239Z,986.84
2018-08-06T11:00:53.201Z,986.79
2018-08-06T11:01:53.183Z,986.82
2018-08-06T11:02:53.165Z,986.81
2018-08-06T11:03:53.158Z,986.79
2018-08-06T11:04:53.127Z,986.78
2018-08-06T11:05:53.107Z,986.75
2018-08-06T11:06:53.079Z,986.74
2018-08-06T11:07:53.070Z,986.73
2018-08-06T11:08:53.139Z,986.69
2018-08-06T11:09:53.025Z,986.66
2018-08-06T11:10:53.007Z,986.64
2018-08-06T11:11:53.048Z,986.68
2018-08-06T11:12:52.982Z,986.65
2018-08-06T11:13:52.965Z,986.67
2018-08-06T11:14:52.953Z,986.60
2018-08-06T11:15:52.951Z,986.65
2018-08-06T11:16:52.927Z,986.64
2018-08-06T11:17:52.892Z,986.66
2018-08-06T11:18:52.872Z,986.67
2018-08-06T11:19:52.885Z,986.65
2018-08-06T11:20:53.652Z,986.62
2018-08-06T11:21:52.819Z,986.60
2018-08-06T11:22:52.796Z,986.61
2018-08-06T11:23:52.790Z,986.54
2018-08-06T11:24:52.756Z,986.53
2018-08-06T11:25:52.745Z,986.52
2018-08-06T11:26:52.742Z,986.50
2018-08-06T11:27:52.762Z,986.45
2018-08-06T11:28:52.684Z,986.45
2018-08-06T11:29:52.684Z,986.51
2018-08-06T11:30:52.673Z,986.51
2018-08-06T11:31:52.635Z,986.46
2018-08-06T11:32:52.631Z,986.49
2018-08-06T11:33:52.593Z,986.47
2018-08-06T11:34:52.570Z,986.43
2018-08-06T11:35:52.580Z,986.44
2018-08-06T11:36:52.585Z,986.44
2018-08-06T11:37:52.516Z,986.42
2018-08-06T11:38:52.504Z,986.43
2018-08-06T11:39:52.499Z,986.39
2018-08-06T11:40:52.455Z,986.41
2018-08-06T11:41:52.441Z,986.38
2018-08-06T11:42:52.442Z,986.34
2018-08-06T11:43:52.429Z,986.35
2018-08-06T11:44:52.386Z,986.34
2018-08-06T11:45:52.367Z,986.30
2018-08-06T11:46:52.371Z,986.30
2018-08-06T11:47:52.382Z,986.31
2018-08-06T11:48:52.350Z,986.25
2018-08-06T11:49:52.288Z,986.24
2018-08-06T11:50:52.290Z,986.25
2018-08-06T11:51:52.285Z,986.24
2018-08-06T11:52:52.244Z,986.21
2018-08-06T11:53:52.216Z,986.29
2018-08-06T11:54:52.203Z,986.21
2018-08-06T11:55:52.228Z,986.27
2018-08-06T11:56:52.353Z,986.18
2018-08-06T11:57:52.141Z,986.20
2018-08-06T11:58:52.151Z,986.21
2018-08-06T11:59:52.138Z,986.22
2018-08-06T12:00:52.167Z,986.24
2018-08-06T12:01:52.128Z,986.21
2018-08-06T12:02:52.086Z,986.19
2018-08-06T12:03:52.081Z,986.14
2018-08-06T12:04:52.083Z,986.12
2018-08-06T12:05:52.089Z,986.10
2018-08-06T12:06:52.074Z,986.08
2018-08-06T12:07:52.029Z,986.06
2018-08-06T12:08:52.100Z,986.06
2018-08-06T12:09:51.919Z,986.06
2018-08-06T12:10:51.903Z,986.04
2018-08-06T12:11:51.884Z,986.05
2018-08-06T12:12:51.871Z,986.01
2018-08-06T12:13:51.844Z,986.02
2018-08-06T12:14:51.834Z,985.98
2018-08-06T12:15:51.821Z,985.98
2018-08-06T12:16:51.915Z,986.00
2018-08-06T12:17:51.796Z,986.01
2018-08-06T12:18:51.761Z,985.99
2018-08-06T12:19:51.742Z,985.98
2018-08-06T12:20:51.759Z,985.96
2018-08-06T12:21:51.722Z,985.93
2018-08-06T12:22:51.710Z,985.90
2018-08-06T12:23:51.684Z,985.93
2018-08-06T12:24:51.660Z,985.87
2018-08-06T12:25:51.648Z,985.88
2018-08-06T12:26:51.621Z,985.87
2018-08-06T12:27:51.597Z,985.92